sensor_id;sensor_type;location;lat;lon;timestamp;P1;durP1;ratioP1;P2;durP2;ratioP2
38487;SDS011;57384;51.986;4.458;2023-04-23T00:02:44;32.60;;;11.20;;
38487;SDS011;57384;51.986;4.458;2023-04-23T00:05:30;30.38;;;10.05;;
38487;SDS011;57384;51.986;4.458;2023-04-23T00:08:16;29.73;;;11.50;;
38487;SDS011;57384;51.986;4.458;2023-04-23T00:11:04;32.70;;;11.50;;
38487;SDS011;57384;51.986;4.458;2023-04-23T00:13:52;31.85;;;12.45;;
38487;SDS011;57384;51.986;4.458;2023-04-23T00:16:38;32.25;;;12.40;;
38487;SDS011;57384;51.986;4.458;2023-04-23T00:19:25;24.50;;;9.38;;
38487;SDS011;57384;51.986;4.458;2023-04-23T00:22:09;32.85;;;12.70;;
38487;SDS011;57384;51.986;4.458;2023-04-23T00:24:54;35.97;;;13.75;;
38487;SDS011;57384;51.986;4.458;2023-04-23T00:27:41;30.67;;;12.75;;
38487;SDS011;57384;51.986;4.458;2023-04-23T00:30:25;25.50;;;10.93;;
38487;SDS011;57384;51.986;4.458;2023-04-23T00:33:10;29.83;;;11.00;;
38487;SDS011;57384;51.986;4.458;2023-04-23T00:35:54;31.50;;;11.27;;
38487;SDS011;57384;51.986;4.458;2023-04-23T00:38:38;32.40;;;11.70;;
38487;SDS011;57384;51.986;4.458;2023-04-23T00:41:32;25.20;;;8.57;;
38487;SDS011;57384;51.986;4.458;2023-04-23T00:44:26;31.48;;;11.60;;
38487;SDS011;57384;51.986;4.458;2023-04-23T00:47:13;32.50;;;11.50;;
38487;SDS011;57384;51.986;4.458;2023-04-23T00:50:04;34.35;;;12.70;;
38487;SDS011;57384;51.986;4.458;2023-04-23T00:52:50;35.28;;;13.50;;
38487;SDS011;57384;51.986;4.458;2023-04-23T00:55:37;28.67;;;11.23;;
38487;SDS011;57384;51.986;4.458;2023-04-23T00:58:21;31.02;;;12.23;;
38487;SDS011;57384;51.986;4.458;2023-04-23T01:01:05;29.92;;;10.60;;
38487;SDS011;57384;51.986;4.458;2023-04-23T01:03:50;29.52;;;11.57;;
38487;SDS011;57384;51.986;4.458;2023-04-23T01:06:36;28.00;;;10.90;;
38487;SDS011;57384;51.986;4.458;2023-04-23T01:09:24;35.70;;;13.40;;
38487;SDS011;57384;51.986;4.458;2023-04-23T01:12:09;33.47;;;12.30;;
38487;SDS011;57384;51.986;4.458;2023-04-23T01:14:57;30.63;;;11.65;;
38487;SDS011;57384;51.986;4.458;2023-04-23T01:17:41;33.30;;;11.82;;
38487;SDS011;57384;51.986;4.458;2023-04-23T01:20:26;31.73;;;12.57;;
38487;SDS011;57384;51.986;4.458;2023-04-23T01:23:10;38.33;;;14.02;;
38487;SDS011;57384;51.986;4.458;2023-04-23T01:25:55;31.90;;;12.20;;
38487;SDS011;57384;51.986;4.458;2023-04-23T01:28:40;35.70;;;12.02;;
38487;SDS011;57384;51.986;4.458;2023-04-23T01:31:26;29.80;;;11.05;;
38487;SDS011;57384;51.986;4.458;2023-04-23T01:34:19;31.75;;;12.77;;
38487;SDS011;57384;51.986;4.458;2023-04-23T01:37:05;29.63;;;11.73;;
38487;SDS011;57384;51.986;4.458;2023-04-23T01:39:56;35.75;;;11.40;;
38487;SDS011;57384;51.986;4.458;2023-04-23T01:42:42;28.25;;;10.85;;
38487;SDS011;57384;51.986;4.458;2023-04-23T01:45:26;23.08;;;9.38;;
38487;SDS011;57384;51.986;4.458;2023-04-23T01:48:10;33.72;;;12.43;;
38487;SDS011;57384;51.986;4.458;2023-04-23T01:50:54;25.17;;;9.65;;
38487;SDS011;57384;51.986;4.458;2023-04-23T01:53:39;26.48;;;9.98;;
38487;SDS011;57384;51.986;4.458;2023-04-23T01:56:24;26.75;;;10.80;;
38487;SDS011;57384;51.986;4.458;2023-04-23T01:59:10;22.60;;;8.48;;
38487;SDS011;57384;51.986;4.458;2023-04-23T02:02:00;18.23;;;7.13;;
38487;SDS011;57384;51.986;4.458;2023-04-23T02:04:44;18.83;;;7.68;;
38487;SDS011;57384;51.986;4.458;2023-04-23T02:07:32;22.20;;;7.57;;
38487;SDS011;57384;51.986;4.458;2023-04-23T02:10:17;19.38;;;7.20;;
38487;SDS011;57384;51.986;4.458;2023-04-23T02:13:02;17.15;;;6.32;;
38487;SDS011;57384;51.986;4.458;2023-04-23T02:15:49;16.83;;;6.82;;
38487;SDS011;57384;51.986;4.458;2023-04-23T02:18:36;17.48;;;7.38;;
38487;SDS011;57384;51.986;4.458;2023-04-23T02:21:22;20.27;;;7.30;;
38487;SDS011;57384;51.986;4.458;2023-04-23T02:24:07;17.10;;;7.70;;
38487;SDS011;57384;51.986;4.458;2023-04-23T02:26:54;20.00;;;8.10;;
38487;SDS011;57384;51.986;4.458;2023-04-23T02:29:39;15.07;;;6.35;;
38487;SDS011;57384;51.986;4.458;2023-04-23T02:32:26;16.35;;;5.68;;
38487;SDS011;57384;51.986;4.458;2023-04-23T02:35:13;16.27;;;7.00;;
38487;SDS011;57384;51.986;4.458;2023-04-23T02:37:57;15.93;;;6.07;;
38487;SDS011;57384;51.986;4.458;2023-04-23T02:40:42;10.18;;;4.15;;
38487;SDS011;57384;51.986;4.458;2023-04-23T02:43:26;20.60;;;7.30;;
38487;SDS011;57384;51.986;4.458;2023-04-23T02:46:10;15.52;;;6.22;;
38487;SDS011;57384;51.986;4.458;2023-04-23T02:48:54;16.95;;;6.85;;
38487;SDS011;57384;51.986;4.458;2023-04-23T02:51:38;21.08;;;7.82;;
38487;SDS011;57384;51.986;4.458;2023-04-23T02:54:23;17.17;;;6.78;;
38487;SDS011;57384;51.986;4.458;2023-04-23T02:57:07;14.95;;;6.05;;
38487;SDS011;57384;51.986;4.458;2023-04-23T02:59:51;13.32;;;5.53;;
38487;SDS011;57384;51.986;4.458;2023-04-23T03:02:35;14.07;;;5.60;;
38487;SDS011;57384;51.986;4.458;2023-04-23T03:05:19;15.52;;;5.97;;
38487;SDS011;57384;51.986;4.458;2023-04-23T03:08:04;15.60;;;6.45;;
38487;SDS011;57384;51.986;4.458;2023-04-23T03:10:48;17.08;;;6.60;;
38487;SDS011;57384;51.986;4.458;2023-04-23T03:13:32;19.20;;;6.65;;
38487;SDS011;57384;51.986;4.458;2023-04-23T03:16:16;16.90;;;5.97;;
38487;SDS011;57384;51.986;4.458;2023-04-23T03:19:01;17.55;;;6.72;;
38487;SDS011;57384;51.986;4.458;2023-04-23T03:21:45;13.95;;;6.05;;
38487;SDS011;57384;51.986;4.458;2023-04-23T03:24:29;18.85;;;8.13;;
38487;SDS011;57384;51.986;4.458;2023-04-23T03:27:15;21.58;;;7.18;;
38487;SDS011;57384;51.986;4.458;2023-04-23T03:29:59;14.45;;;6.22;;
38487;SDS011;57384;51.986;4.458;2023-04-23T03:32:43;16.45;;;6.57;;
38487;SDS011;57384;51.986;4.458;2023-04-23T03:35:27;16.45;;;7.03;;
38487;SDS011;57384;51.986;4.458;2023-04-23T03:38:12;17.85;;;7.22;;
38487;SDS011;57384;51.986;4.458;2023-04-23T03:40:56;12.02;;;4.70;;
38487;SDS011;57384;51.986;4.458;2023-04-23T03:43:41;17.08;;;6.40;;
38487;SDS011;57384;51.986;4.458;2023-04-23T03:46:25;18.15;;;7.07;;
38487;SDS011;57384;51.986;4.458;2023-04-23T03:49:09;15.00;;;6.00;;
38487;SDS011;57384;51.986;4.458;2023-04-23T03:51:53;19.92;;;6.35;;
38487;SDS011;57384;51.986;4.458;2023-04-23T03:54:37;17.05;;;6.78;;
38487;SDS011;57384;51.986;4.458;2023-04-23T03:57:24;14.10;;;6.22;;
38487;SDS011;57384;51.986;4.458;2023-04-23T04:00:16;18.88;;;5.97;;
38487;SDS011;57384;51.986;4.458;2023-04-23T04:03:00;20.60;;;6.80;;
38487;SDS011;57384;51.986;4.458;2023-04-23T04:05:44;17.40;;;6.72;;
38487;SDS011;57384;51.986;4.458;2023-04-23T04:08:28;16.40;;;5.85;;
38487;SDS011;57384;51.986;4.458;2023-04-23T04:11:13;15.27;;;5.22;;
38487;SDS011;57384;51.986;4.458;2023-04-23T04:13:57;13.23;;;5.15;;
38487;SDS011;57384;51.986;4.458;2023-04-23T04:16:41;18.85;;;6.95;;
38487;SDS011;57384;51.986;4.458;2023-04-23T04:19:25;17.35;;;6.22;;
38487;SDS011;57384;51.986;4.458;2023-04-23T04:22:09;17.63;;;6.82;;
38487;SDS011;57384;51.986;4.458;2023-04-23T04:24:53;11.95;;;5.47;;
38487;SDS011;57384;51.986;4.458;2023-04-23T04:27:37;15.75;;;6.65;;
38487;SDS011;57384;51.986;4.458;2023-04-23T04:30:22;17.02;;;5.75;;
38487;SDS011;57384;51.986;4.458;2023-04-23T04:33:07;10.73;;;4.47;;
38487;SDS011;57384;51.986;4.458;2023-04-23T04:35:51;17.42;;;6.72;;
38487;SDS011;57384;51.986;4.458;2023-04-23T04:38:36;20.05;;;5.70;;
38487;SDS011;57384;51.986;4.458;2023-04-23T04:41:27;14.63;;;5.28;;
38487;SDS011;57384;51.986;4.458;2023-04-23T04:44:12;14.30;;;6.13;;
38487;SDS011;57384;51.986;4.458;2023-04-23T04:46:56;17.25;;;6.53;;
38487;SDS011;57384;51.986;4.458;2023-04-23T04:49:40;13.27;;;5.05;;
38487;SDS011;57384;51.986;4.458;2023-04-23T04:52:24;13.88;;;4.93;;
38487;SDS011;57384;51.986;4.458;2023-04-23T04:55:08;12.60;;;5.18;;
38487;SDS011;57384;51.986;4.458;2023-04-23T04:57:53;15.25;;;5.22;;
38487;SDS011;57384;51.986;4.458;2023-04-23T05:00:37;15.85;;;6.50;;
38487;SDS011;57384;51.986;4.458;2023-04-23T05:03:21;12.60;;;4.38;;
38487;SDS011;57384;51.986;4.458;2023-04-23T05:06:05;13.75;;;5.07;;
38487;SDS011;57384;51.986;4.458;2023-04-23T05:08:53;13.35;;;5.05;;
38487;SDS011;57384;51.986;4.458;2023-04-23T05:11:40;15.13;;;5.60;;
38487;SDS011;57384;51.986;4.458;2023-04-23T05:14:34;15.60;;;5.78;;
38487;SDS011;57384;51.986;4.458;2023-04-23T05:17:24;16.20;;;6.20;;
38487;SDS011;57384;51.986;4.458;2023-04-23T05:20:15;16.75;;;6.10;;
38487;SDS011;57384;51.986;4.458;2023-04-23T05:23:05;11.90;;;5.00;;
38487;SDS011;57384;51.986;4.458;2023-04-23T05:25:49;13.63;;;5.30;;
38487;SDS011;57384;51.986;4.458;2023-04-23T05:28:34;15.55;;;5.03;;
38487;SDS011;57384;51.986;4.458;2023-04-23T05:31:18;15.27;;;5.15;;
38487;SDS011;57384;51.986;4.458;2023-04-23T05:34:02;15.65;;;5.82;;
38487;SDS011;57384;51.986;4.458;2023-04-23T05:36:47;17.83;;;5.63;;
38487;SDS011;57384;51.986;4.458;2023-04-23T05:39:31;13.75;;;6.03;;
38487;SDS011;57384;51.986;4.458;2023-04-23T05:42:16;13.38;;;4.35;;
38487;SDS011;57384;51.986;4.458;2023-04-23T05:45:06;12.60;;;5.20;;
38487;SDS011;57384;51.986;4.458;2023-04-23T05:47:58;14.23;;;4.53;;
38487;SDS011;57384;51.986;4.458;2023-04-23T05:50:44;12.32;;;4.53;;
38487;SDS011;57384;51.986;4.458;2023-04-23T05:53:29;11.45;;;4.70;;
38487;SDS011;57384;51.986;4.458;2023-04-23T05:56:13;15.82;;;5.55;;
38487;SDS011;57384;51.986;4.458;2023-04-23T05:59:04;12.15;;;5.05;;
38487;SDS011;57384;51.986;4.458;2023-04-23T06:02:02;10.70;;;4.18;;
38487;SDS011;57384;51.986;4.458;2023-04-23T06:04:46;10.52;;;4.05;;
38487;SDS011;57384;51.986;4.458;2023-04-23T06:07:31;13.13;;;3.80;;
38487;SDS011;57384;51.986;4.458;2023-04-23T06:10:18;9.93;;;3.95;;
38487;SDS011;57384;51.986;4.458;2023-04-23T06:13:02;8.73;;;3.53;;
38487;SDS011;57384;51.986;4.458;2023-04-23T06:15:46;9.40;;;3.83;;
38487;SDS011;57384;51.986;4.458;2023-04-23T06:18:30;10.57;;;3.83;;
38487;SDS011;57384;51.986;4.458;2023-04-23T06:21:14;10.73;;;3.83;;
38487;SDS011;57384;51.986;4.458;2023-04-23T06:23:58;10.60;;;4.47;;
38487;SDS011;57384;51.986;4.458;2023-04-23T06:26:44;10.68;;;3.67;;
38487;SDS011;57384;51.986;4.458;2023-04-23T06:29:28;9.93;;;3.35;;
38487;SDS011;57384;51.986;4.458;2023-04-23T06:32:12;10.45;;;3.88;;
38487;SDS011;57384;51.986;4.458;2023-04-23T06:34:56;10.88;;;4.03;;
38487;SDS011;57384;51.986;4.458;2023-04-23T06:37:41;9.60;;;3.63;;
38487;SDS011;57384;51.986;4.458;2023-04-23T06:40:25;8.57;;;3.15;;
38487;SDS011;57384;51.986;4.458;2023-04-23T06:43:09;8.65;;;3.63;;
38487;SDS011;57384;51.986;4.458;2023-04-23T06:48:41;11.25;;;3.17;;
38487;SDS011;57384;51.986;4.458;2023-04-23T06:51:25;6.75;;;2.78;;
38487;SDS011;57384;51.986;4.458;2023-04-23T06:54:09;9.05;;;3.35;;
38487;SDS011;57384;51.986;4.458;2023-04-23T06:56:53;8.68;;;2.88;;
38487;SDS011;57384;51.986;4.458;2023-04-23T06:59:38;7.63;;;2.58;;
38487;SDS011;57384;51.986;4.458;2023-04-23T07:02:22;7.07;;;2.65;;
38487;SDS011;57384;51.986;4.458;2023-04-23T07:05:06;9.77;;;2.70;;
38487;SDS011;57384;51.986;4.458;2023-04-23T07:07:50;8.10;;;2.35;;
38487;SDS011;57384;51.986;4.458;2023-04-23T07:10:35;6.68;;;2.13;;
38487;SDS011;57384;51.986;4.458;2023-04-23T07:13:19;6.63;;;2.00;;
38487;SDS011;57384;51.986;4.458;2023-04-23T07:16:04;6.97;;;1.83;;
38487;SDS011;57384;51.986;4.458;2023-04-23T07:18:48;10.88;;;2.08;;
38487;SDS011;57384;51.986;4.458;2023-04-23T07:21:32;6.95;;;2.17;;
38487;SDS011;57384;51.986;4.458;2023-04-23T07:24:16;8.07;;;1.38;;
38487;SDS011;57384;51.986;4.458;2023-04-23T07:27:01;6.75;;;1.42;;
38487;SDS011;57384;51.986;4.458;2023-04-23T07:29:45;5.60;;;1.55;;
38487;SDS011;57384;51.986;4.458;2023-04-23T07:32:29;9.02;;;1.45;;
38487;SDS011;57384;51.986;4.458;2023-04-23T07:35:14;5.82;;;1.15;;
38487;SDS011;57384;51.986;4.458;2023-04-23T07:37:58;6.32;;;1.00;;
38487;SDS011;57384;51.986;4.458;2023-04-23T07:40:42;6.13;;;1.20;;
38487;SDS011;57384;51.986;4.458;2023-04-23T07:43:27;8.02;;;1.25;;
38487;SDS011;57384;51.986;4.458;2023-04-23T07:46:11;6.82;;;0.88;;
38487;SDS011;57384;51.986;4.458;2023-04-23T07:48:55;5.82;;;0.77;;
38487;SDS011;57384;51.986;4.458;2023-04-23T07:51:40;3.42;;;0.90;;
38487;SDS011;57384;51.986;4.458;2023-04-23T07:54:24;5.55;;;0.90;;
38487;SDS011;57384;51.986;4.458;2023-04-23T07:57:09;5.47;;;0.88;;
38487;SDS011;57384;51.986;4.458;2023-04-23T07:59:53;4.78;;;0.70;;
38487;SDS011;57384;51.986;4.458;2023-04-23T08:02:37;2.85;;;0.80;;
38487;SDS011;57384;51.986;4.458;2023-04-23T08:05:21;6.70;;;1.08;;
38487;SDS011;57384;51.986;4.458;2023-04-23T08:08:09;4.95;;;0.68;;
38487;SDS011;57384;51.986;4.458;2023-04-23T08:10:55;3.75;;;0.60;;
38487;SDS011;57384;51.986;4.458;2023-04-23T08:13:39;5.13;;;0.70;;
38487;SDS011;57384;51.986;4.458;2023-04-23T08:16:24;3.08;;;0.60;;
38487;SDS011;57384;51.986;4.458;2023-04-23T08:19:11;2.42;;;0.57;;
38487;SDS011;57384;51.986;4.458;2023-04-23T08:21:59;7.13;;;0.70;;
38487;SDS011;57384;51.986;4.458;2023-04-23T08:24:43;4.90;;;0.70;;
38487;SDS011;57384;51.986;4.458;2023-04-23T08:27:27;4.95;;;0.90;;
38487;SDS011;57384;51.986;4.458;2023-04-23T08:30:12;2.47;;;0.60;;
38487;SDS011;57384;51.986;4.458;2023-04-23T08:32:56;1.95;;;0.55;;
38487;SDS011;57384;51.986;4.458;2023-04-23T08:35:41;10.20;;;1.10;;
38487;SDS011;57384;51.986;4.458;2023-04-23T08:38:25;5.80;;;0.80;;
38487;SDS011;57384;51.986;4.458;2023-04-23T08:41:10;4.35;;;0.65;;
38487;SDS011;57384;51.986;4.458;2023-04-23T08:44:02;7.13;;;0.85;;
38487;SDS011;57384;51.986;4.458;2023-04-23T08:47:03;4.00;;;0.57;;
38487;SDS011;57384;51.986;4.458;2023-04-23T08:49:52;5.72;;;0.45;;
38487;SDS011;57384;51.986;4.458;2023-04-23T08:52:39;6.45;;;0.50;;
38487;SDS011;57384;51.986;4.458;2023-04-23T08:58:08;2.25;;;0.60;;
38487;SDS011;57384;51.986;4.458;2023-04-23T09:00:53;4.13;;;0.60;;
38487;SDS011;57384;51.986;4.458;2023-04-23T09:03:38;3.75;;;0.60;;
38487;SDS011;57384;51.986;4.458;2023-04-23T09:06:23;4.95;;;0.60;;
38487;SDS011;57384;51.986;4.458;2023-04-23T09:09:08;4.45;;;0.50;;
38487;SDS011;57384;51.986;4.458;2023-04-23T09:11:54;4.00;;;0.40;;
38487;SDS011;57384;51.986;4.458;2023-04-23T09:14:42;1.65;;;0.40;;
38487;SDS011;57384;51.986;4.458;2023-04-23T09:17:28;6.93;;;0.43;;
38487;SDS011;57384;51.986;4.458;2023-04-23T09:20:12;3.03;;;0.30;;
38487;SDS011;57384;51.986;4.458;2023-04-23T09:22:57;1.67;;;0.30;;
38487;SDS011;57384;51.986;4.458;2023-04-23T09:25:42;9.85;;;0.60;;
38487;SDS011;57384;51.986;4.458;2023-04-23T09:28:36;7.05;;;0.38;;
38487;SDS011;57384;51.986;4.458;2023-04-23T09:31:23;1.50;;;0.25;;
38487;SDS011;57384;51.986;4.458;2023-04-23T09:34:11;3.90;;;0.40;;
38487;SDS011;57384;51.986;4.458;2023-04-23T09:37:17;1.30;;;0.50;;
38487;SDS011;57384;51.986;4.458;2023-04-23T09:40:03;2.90;;;0.30;;
38487;SDS011;57384;51.986;4.458;2023-04-23T09:42:49;4.22;;;0.40;;
38487;SDS011;57384;51.986;4.458;2023-04-23T09:45:34;2.63;;;0.30;;
38487;SDS011;57384;51.986;4.458;2023-04-23T09:48:18;5.57;;;0.30;;
38487;SDS011;57384;51.986;4.458;2023-04-23T09:51:03;4.40;;;0.38;;
38487;SDS011;57384;51.986;4.458;2023-04-23T09:53:48;3.70;;;0.40;;
38487;SDS011;57384;51.986;4.458;2023-04-23T09:56:32;5.72;;;0.30;;
38487;SDS011;57384;51.986;4.458;2023-04-23T09:59:24;4.10;;;0.30;;
38487;SDS011;57384;51.986;4.458;2023-04-23T10:02:09;7.05;;;0.28;;
38487;SDS011;57384;51.986;4.458;2023-04-23T10:04:54;5.78;;;0.30;;
38487;SDS011;57384;51.986;4.458;2023-04-23T10:07:42;4.30;;;0.40;;
38487;SDS011;57384;51.986;4.458;2023-04-23T10:10:27;3.33;;;0.25;;
38487;SDS011;57384;51.986;4.458;2023-04-23T10:13:12;1.98;;;0.30;;
38487;SDS011;57384;51.986;4.458;2023-04-23T10:15:57;3.08;;;0.30;;
38487;SDS011;57384;51.986;4.458;2023-04-23T10:18:43;4.85;;;0.30;;
38487;SDS011;57384;51.986;4.458;2023-04-23T10:21:28;2.33;;;0.30;;
38487;SDS011;57384;51.986;4.458;2023-04-23T10:24:14;3.45;;;0.50;;
38487;SDS011;57384;51.986;4.458;2023-04-23T10:27:12;4.97;;;0.35;;
38487;SDS011;57384;51.986;4.458;2023-04-23T10:30:01;3.15;;;0.40;;
38487;SDS011;57384;51.986;4.458;2023-04-23T10:32:47;1.67;;;0.20;;
38487;SDS011;57384;51.986;4.458;2023-04-23T10:35:32;3.58;;;0.30;;
38487;SDS011;57384;51.986;4.458;2023-04-23T10:38:17;2.70;;;0.30;;
38487;SDS011;57384;51.986;4.458;2023-04-23T10:41:01;4.22;;;0.30;;
38487;SDS011;57384;51.986;4.458;2023-04-23T10:43:46;3.67;;;0.20;;
38487;SDS011;57384;51.986;4.458;2023-04-23T10:46:31;3.03;;;0.20;;
38487;SDS011;57384;51.986;4.458;2023-04-23T10:49:18;2.42;;;0.30;;
38487;SDS011;57384;51.986;4.458;2023-04-23T10:52:14;1.58;;;0.20;;
38487;SDS011;57384;51.986;4.458;2023-04-23T10:54:59;2.00;;;0.20;;
38487;SDS011;57384;51.986;4.458;2023-04-23T11:00:58;2.45;;;0.20;;
38487;SDS011;57384;51.986;4.458;2023-04-23T11:03:50;3.10;;;0.30;;
38487;SDS011;57384;51.986;4.458;2023-04-23T11:12:42;1.20;;;0.10;;
38487;SDS011;57384;51.986;4.458;2023-04-23T11:15:27;1.45;;;0.30;;
38487;SDS011;57384;51.986;4.458;2023-04-23T11:18:13;3.03;;;0.20;;
38487;SDS011;57384;51.986;4.458;2023-04-23T11:20:57;0.40;;;0.10;;
38487;SDS011;57384;51.986;4.458;2023-04-23T11:23:41;0.90;;;0.10;;
38487;SDS011;57384;51.986;4.458;2023-04-23T11:26:28;1.63;;;0.15;;
38487;SDS011;57384;51.986;4.458;2023-04-23T11:29:14;1.00;;;0.20;;
38487;SDS011;57384;51.986;4.458;2023-04-23T11:31:59;4.45;;;0.17;;
38487;SDS011;57384;51.986;4.458;2023-04-23T11:34:44;1.02;;;0.13;;
38487;SDS011;57384;51.986;4.458;2023-04-23T11:37:29;1.85;;;0.10;;
38487;SDS011;57384;51.986;4.458;2023-04-23T11:40:17;4.35;;;0.20;;
38487;SDS011;57384;51.986;4.458;2023-04-23T11:43:01;1.95;;;0.10;;
38487;SDS011;57384;51.986;4.458;2023-04-23T11:45:47;2.03;;;0.20;;
38487;SDS011;57384;51.986;4.458;2023-04-23T11:48:31;3.72;;;0.10;;
38487;SDS011;57384;51.986;4.458;2023-04-23T11:51:26;1.63;;;0.20;;
38487;SDS011;57384;51.986;4.458;2023-04-23T11:54:23;2.00;;;0.15;;
38487;SDS011;57384;51.986;4.458;2023-04-23T11:57:11;1.20;;;0.10;;
38487;SDS011;57384;51.986;4.458;2023-04-23T11:59:55;1.05;;;0.10;;
38487;SDS011;57384;51.986;4.458;2023-04-23T12:03:08;2.30;;;0.10;;
38487;SDS011;57384;51.986;4.458;2023-04-23T12:06:09;2.63;;;0.20;;
38487;SDS011;57384;51.986;4.458;2023-04-23T12:08:53;4.40;;;0.17;;
38487;SDS011;57384;51.986;4.458;2023-04-23T12:11:38;2.53;;;0.10;;
38487;SDS011;57384;51.986;4.458;2023-04-23T12:14:27;3.50;;;0.10;;
38487;SDS011;57384;51.986;4.458;2023-04-23T12:20:20;0.73;;;0.00;;
38487;SDS011;57384;51.986;4.458;2023-04-23T12:23:08;2.30;;;0.15;;
38487;SDS011;57384;51.986;4.458;2023-04-23T12:25:56;1.90;;;0.30;;
38487;SDS011;57384;51.986;4.458;2023-04-23T12:28:46;4.15;;;0.20;;
38487;SDS011;57384;51.986;4.458;2023-04-23T12:31:35;0.77;;;0.10;;
38487;SDS011;57384;51.986;4.458;2023-04-23T12:34:32;0.93;;;0.10;;
38487;SDS011;57384;51.986;4.458;2023-04-23T12:37:16;2.75;;;0.10;;
38487;SDS011;57384;51.986;4.458;2023-04-23T12:40:00;5.78;;;0.20;;
38487;SDS011;57384;51.986;4.458;2023-04-23T12:42:48;2.67;;;0.10;;
38487;SDS011;57384;51.986;4.458;2023-04-23T12:45:35;2.58;;;0.10;;
38487;SDS011;57384;51.986;4.458;2023-04-23T12:48:20;1.73;;;0.10;;
38487;SDS011;57384;51.986;4.458;2023-04-23T12:51:04;1.60;;;0.10;;
38487;SDS011;57384;51.986;4.458;2023-04-23T12:53:49;1.65;;;0.10;;
38487;SDS011;57384;51.986;4.458;2023-04-23T12:56:33;0.90;;;0.10;;
38487;SDS011;57384;51.986;4.458;2023-04-23T12:59:17;0.85;;;0.10;;
38487;SDS011;57384;51.986;4.458;2023-04-23T13:02:05;1.88;;;0.10;;
38487;SDS011;57384;51.986;4.458;2023-04-23T13:04:53;2.00;;;0.10;;
38487;SDS011;57384;51.986;4.458;2023-04-23T13:07:51;2.65;;;0.08;;
38487;SDS011;57384;51.986;4.458;2023-04-23T13:10:38;2.67;;;0.10;;
38487;SDS011;57384;51.986;4.458;2023-04-23T13:13:25;2.65;;;0.20;;
38487;SDS011;57384;51.986;4.458;2023-04-23T13:16:13;2.05;;;0.20;;
38487;SDS011;57384;51.986;4.458;2023-04-23T13:18:58;1.95;;;0.10;;
38487;SDS011;57384;51.986;4.458;2023-04-23T13:21:43;0.70;;;0.10;;
38487;SDS011;57384;51.986;4.458;2023-04-23T13:24:28;0.70;;;0.10;;
38487;SDS011;57384;51.986;4.458;2023-04-23T13:27:12;1.70;;;0.10;;
38487;SDS011;57384;51.986;4.458;2023-04-23T13:29:59;2.15;;;0.10;;
38487;SDS011;57384;51.986;4.458;2023-04-23T13:32:50;1.77;;;0.13;;
38487;SDS011;57384;51.986;4.458;2023-04-23T13:35:36;4.55;;;0.17;;
38487;SDS011;57384;51.986;4.458;2023-04-23T13:38:36;2.03;;;0.10;;
38487;SDS011;57384;51.986;4.458;2023-04-23T13:41:21;2.70;;;0.10;;
38487;SDS011;57384;51.986;4.458;2023-04-23T13:44:05;1.23;;;0.10;;
38487;SDS011;57384;51.986;4.458;2023-04-23T13:46:50;2.97;;;0.10;;
38487;SDS011;57384;51.986;4.458;2023-04-23T13:49:34;2.35;;;0.13;;
38487;SDS011;57384;51.986;4.458;2023-04-23T13:52:19;3.35;;;0.10;;
38487;SDS011;57384;51.986;4.458;2023-04-23T13:55:06;1.52;;;0.20;;
38487;SDS011;57384;51.986;4.458;2023-04-23T13:57:50;1.70;;;0.10;;
38487;SDS011;57384;51.986;4.458;2023-04-23T14:00:41;3.33;;;0.20;;
38487;SDS011;57384;51.986;4.458;2023-04-23T14:03:27;1.65;;;0.10;;
38487;SDS011;57384;51.986;4.458;2023-04-23T14:06:12;2.17;;;0.10;;
38487;SDS011;57384;51.986;4.458;2023-04-23T14:08:56;3.40;;;0.20;;
38487;SDS011;57384;51.986;4.458;2023-04-23T14:11:40;3.20;;;0.20;;
38487;SDS011;57384;51.986;4.458;2023-04-23T14:14:24;3.70;;;0.20;;
38487;SDS011;57384;51.986;4.458;2023-04-23T14:17:08;3.80;;;0.20;;
38487;SDS011;57384;51.986;4.458;2023-04-23T14:19:53;1.40;;;0.20;;
38487;SDS011;57384;51.986;4.458;2023-04-23T14:22:37;1.77;;;0.17;;
38487;SDS011;57384;51.986;4.458;2023-04-23T14:31:29;3.70;;;0.10;;
38487;SDS011;57384;51.986;4.458;2023-04-23T14:34:13;0.95;;;0.10;;
38487;SDS011;57384;51.986;4.458;2023-04-23T14:36:57;2.28;;;0.20;;
38487;SDS011;57384;51.986;4.458;2023-04-23T14:39:44;2.33;;;0.17;;
38487;SDS011;57384;51.986;4.458;2023-04-23T14:42:34;2.70;;;0.20;;
38487;SDS011;57384;51.986;4.458;2023-04-23T14:45:21;0.88;;;0.10;;
38487;SDS011;57384;51.986;4.458;2023-04-23T14:48:05;1.63;;;0.10;;
38487;SDS011;57384;51.986;4.458;2023-04-23T14:50:50;0.75;;;0.10;;
38487;SDS011;57384;51.986;4.458;2023-04-23T14:53:34;2.90;;;0.10;;
38487;SDS011;57384;51.986;4.458;2023-04-23T14:56:18;2.60;;;0.10;;
38487;SDS011;57384;51.986;4.458;2023-04-23T14:59:03;1.65;;;0.10;;
38487;SDS011;57384;51.986;4.458;2023-04-23T15:01:47;2.60;;;0.10;;
38487;SDS011;57384;51.986;4.458;2023-04-23T15:04:31;1.85;;;0.10;;
38487;SDS011;57384;51.986;4.458;2023-04-23T15:07:24;1.95;;;0.10;;
38487;SDS011;57384;51.986;4.458;2023-04-23T15:10:12;0.80;;;0.10;;
38487;SDS011;57384;51.986;4.458;2023-04-23T15:16:27;3.45;;;0.13;;
38487;SDS011;57384;51.986;4.458;2023-04-23T15:19:15;3.25;;;0.10;;
38487;SDS011;57384;51.986;4.458;2023-04-23T15:22:03;1.52;;;0.10;;
38487;SDS011;57384;51.986;4.458;2023-04-23T15:24:50;1.27;;;0.10;;
38487;SDS011;57384;51.986;4.458;2023-04-23T15:27:34;1.10;;;0.10;;
38487;SDS011;57384;51.986;4.458;2023-04-23T15:30:42;2.70;;;0.10;;
38487;SDS011;57384;51.986;4.458;2023-04-23T15:33:38;0.57;;;0.05;;
38487;SDS011;57384;51.986;4.458;2023-04-23T15:36:26;2.83;;;0.10;;
38487;SDS011;57384;51.986;4.458;2023-04-23T15:39:28;4.10;;;0.10;;
38487;SDS011;57384;51.986;4.458;2023-04-23T15:42:12;2.60;;;0.10;;
38487;SDS011;57384;51.986;4.458;2023-04-23T15:44:56;0.52;;;0.08;;
38487;SDS011;57384;51.986;4.458;2023-04-23T15:47:44;3.60;;;0.10;;
38487;SDS011;57384;51.986;4.458;2023-04-23T15:50:28;0.30;;;0.00;;
38487;SDS011;57384;51.986;4.458;2023-04-23T15:53:13;0.93;;;0.00;;
38487;SDS011;57384;51.986;4.458;2023-04-23T15:55:57;0.28;;;0.05;;
38487;SDS011;57384;51.986;4.458;2023-04-23T15:58:41;1.83;;;0.10;;
38487;SDS011;57384;51.986;4.458;2023-04-23T16:01:25;0.70;;;0.10;;
38487;SDS011;57384;51.986;4.458;2023-04-23T16:04:09;0.52;;;0.00;;
38487;SDS011;57384;51.986;4.458;2023-04-23T16:06:54;1.45;;;0.10;;
38487;SDS011;57384;51.986;4.458;2023-04-23T16:09:38;2.75;;;0.10;;
38487;SDS011;57384;51.986;4.458;2023-04-23T16:12:22;3.05;;;0.10;;
38487;SDS011;57384;51.986;4.458;2023-04-23T16:15:06;2.15;;;0.10;;
38487;SDS011;57384;51.986;4.458;2023-04-23T16:17:51;1.30;;;0.10;;
38487;SDS011;57384;51.986;4.458;2023-04-23T16:20:38;1.48;;;0.20;;
38487;SDS011;57384;51.986;4.458;2023-04-23T16:23:22;0.75;;;0.20;;
38487;SDS011;57384;51.986;4.458;2023-04-23T16:26:06;0.40;;;0.10;;
38487;SDS011;57384;51.986;4.458;2023-04-23T16:28:50;0.70;;;0.10;;
38487;SDS011;57384;51.986;4.458;2023-04-23T16:31:37;1.92;;;0.10;;
38487;SDS011;57384;51.986;4.458;2023-04-23T16:34:22;1.85;;;0.10;;
38487;SDS011;57384;51.986;4.458;2023-04-23T16:37:06;0.60;;;0.10;;
38487;SDS011;57384;51.986;4.458;2023-04-23T16:39:50;1.67;;;0.10;;
38487;SDS011;57384;51.986;4.458;2023-04-23T16:42:38;2.35;;;0.20;;
38487;SDS011;57384;51.986;4.458;2023-04-23T16:45:25;1.20;;;0.10;;
38487;SDS011;57384;51.986;4.458;2023-04-23T16:48:09;1.48;;;0.30;;
38487;SDS011;57384;51.986;4.458;2023-04-23T16:50:53;2.95;;;0.10;;
38487;SDS011;57384;51.986;4.458;2023-04-23T16:53:38;1.77;;;0.10;;
38487;SDS011;57384;51.986;4.458;2023-04-23T16:56:22;1.63;;;0.10;;
38487;SDS011;57384;51.986;4.458;2023-04-23T16:59:10;0.70;;;0.10;;
38487;SDS011;57384;51.986;4.458;2023-04-23T17:01:55;0.75;;;0.03;;